sensor_id;sensor_type;location;lat;lon;timestamp;pressure;altitude;pressure_sealevel;temperature
69552;BMP280;63774;45.292;11.784;2022-10-16T00:01:22;102333.45;;;22.63
69552;BMP280;63774;45.292;11.784;2022-10-16T00:03:48;102333.20;;;22.63
69552;BMP280;63774;45.292;11.784;2022-10-16T00:06:16;102335.03;;;22.64
69552;BMP280;63774;45.292;11.784;2022-10-16T00:08:42;102331.96;;;22.63
69552;BMP280;63774;45.292;11.784;2022-10-16T00:11:14;102332.68;;;22.65
69552;BMP280;63774;45.292;11.784;2022-10-16T00:13:41;102331.19;;;22.64
69552;BMP280;63774;45.292;11.784;2022-10-16T00:16:08;102328.25;;;22.64
69552;BMP280;63774;45.292;11.784;2022-10-16T00:18:34;102327.56;;;22.65
69552;BMP280;63774;45.292;11.784;2022-10-16T00:21:08;102326.90;;;22.65
69552;BMP280;63774;45.292;11.784;2022-10-16T00:23:34;102329.64;;;22.66
69552;BMP280;63774;45.292;11.784;2022-10-16T00:26:04;102330.06;;;22.64
69552;BMP280;63774;45.292;11.784;2022-10-16T00:28:30;102330.44;;;22.64
69552;BMP280;63774;45.292;11.784;2022-10-16T00:30:56;102331.77;;;22.65
69552;BMP280;63774;45.292;11.784;2022-10-16T00:33:23;102330.99;;;22.64
69552;BMP280;63774;45.292;11.784;2022-10-16T00:35:49;102331.81;;;22.65
69552;BMP280;63774;45.292;11.784;2022-10-16T00:38:15;102337.45;;;22.67
69552;BMP280;63774;45.292;11.784;2022-10-16T00:40:41;102338.34;;;22.65
69552;BMP280;63774;45.292;11.784;2022-10-16T00:43:32;102339.69;;;22.65
69552;BMP280;63774;45.292;11.784;2022-10-16T00:45:58;102342.15;;;22.66
69552;BMP280;63774;45.292;11.784;2022-10-16T00:48:24;102342.06;;;22.66
69552;BMP280;63774;45.292;11.784;2022-10-16T00:50:50;102340.78;;;22.65
69552;BMP280;63774;45.292;11.784;2022-10-16T00:53:17;102339.77;;;22.66
69552;BMP280;63774;45.292;11.784;2022-10-16T00:55:42;102339.29;;;22.64
69552;BMP280;63774;45.292;11.784;2022-10-16T00:58:09;102340.70;;;22.66
69552;BMP280;63774;45.292;11.784;2022-10-16T01:00:34;102340.82;;;22.66
69552;BMP280;63774;45.292;11.784;2022-10-16T01:03:01;102339.49;;;22.65
69552;BMP280;63774;45.292;11.784;2022-10-16T01:05:33;102341.32;;;22.66
69552;BMP280;63774;45.292;11.784;2022-10-16T01:08:26;102339.45;;;22.65
69552;BMP280;63774;45.292;11.784;2022-10-16T01:10:57;102337.59;;;22.66
69552;BMP280;63774;45.292;11.784;2022-10-16T01:13:34;102341.75;;;22.66
69552;BMP280;63774;45.292;11.784;2022-10-16T01:16:11;102338.59;;;22.66
69552;BMP280;63774;45.292;11.784;2022-10-16T01:19:16;102336.02;;;22.66
69552;BMP280;63774;45.292;11.784;2022-10-16T01:21:44;102336.18;;;22.65
69552;BMP280;63774;45.292;11.784;2022-10-16T01:24:45;102340.81;;;22.65
69552;BMP280;63774;45.292;11.784;2022-10-16T01:27:21;102343.05;;;22.64
69552;BMP280;63774;45.292;11.784;2022-10-16T01:29:59;102343.16;;;22.64
69552;BMP280;63774;45.292;11.784;2022-10-16T01:35:16;102344.20;;;22.64
69552;BMP280;63774;45.292;11.784;2022-10-16T01:38:06;102348.11;;;22.65
69552;BMP280;63774;45.292;11.784;2022-10-16T01:40:36;102345.89;;;22.64
69552;BMP280;63774;45.292;11.784;2022-10-16T01:43:07;102347.55;;;22.65
69552;BMP280;63774;45.292;11.784;2022-10-16T01:45:35;102344.45;;;22.63
69552;BMP280;63774;45.292;11.784;2022-10-16T01:48:04;102344.38;;;22.65
69552;BMP280;63774;45.292;11.784;2022-10-16T01:50:35;102340.30;;;22.62
69552;BMP280;63774;45.292;11.784;2022-10-16T01:53:03;102340.67;;;22.65
69552;BMP280;63774;45.292;11.784;2022-10-16T01:55:33;102341.38;;;22.63
69552;BMP280;63774;45.292;11.784;2022-10-16T01:58:02;102339.35;;;22.63
69552;BMP280;63774;45.292;11.784;2022-10-16T02:00:30;102342.91;;;22.62
69552;BMP280;63774;45.292;11.784;2022-10-16T02:02:57;102344.48;;;22.64
69552;BMP280;63774;45.292;11.784;2022-10-16T02:05:27;102344.29;;;22.64
69552;BMP280;63774;45.292;11.784;2022-10-16T02:07:54;102345.83;;;22.65
69552;BMP280;63774;45.292;11.784;2022-10-16T02:10:20;102345.98;;;22.64
69552;BMP280;63774;45.292;11.784;2022-10-16T02:12:50;102350.38;;;22.66
69552;BMP280;63774;45.292;11.784;2022-10-16T02:15:19;102349.15;;;22.65
69552;BMP280;63774;45.292;11.784;2022-10-16T02:17:45;102354.41;;;22.65
69552;BMP280;63774;45.292;11.784;2022-10-16T02:20:10;102352.01;;;22.65
69552;BMP280;63774;45.292;11.784;2022-10-16T02:22:40;102353.20;;;22.66
69552;BMP280;63774;45.292;11.784;2022-10-16T02:25:46;102350.05;;;22.65
69552;BMP280;63774;45.292;11.784;2022-10-16T02:28:24;102353.80;;;22.67
69552;BMP280;63774;45.292;11.784;2022-10-16T02:31:00;102351.77;;;22.64
69552;BMP280;63774;45.292;11.784;2022-10-16T02:33:27;102352.33;;;22.64
69552;BMP280;63774;45.292;11.784;2022-10-16T02:35:55;102354.43;;;22.66
69552;BMP280;63774;45.292;11.784;2022-10-16T02:38:22;102355.17;;;22.66
69552;BMP280;63774;45.292;11.784;2022-10-16T02:40:49;102361.60;;;22.67
69552;BMP280;63774;45.292;11.784;2022-10-16T02:43:15;102365.98;;;22.67
69552;BMP280;63774;45.292;11.784;2022-10-16T02:45:41;102366.98;;;22.66
69552;BMP280;63774;45.292;11.784;2022-10-16T02:48:06;102366.54;;;22.66
69552;BMP280;63774;45.292;11.784;2022-10-16T02:50:32;102367.19;;;22.66
69552;BMP280;63774;45.292;11.784;2022-10-16T02:52:57;102370.73;;;22.66
69552;BMP280;63774;45.292;11.784;2022-10-16T02:55:23;102373.04;;;22.67
69552;BMP280;63774;45.292;11.784;2022-10-16T02:57:48;102378.42;;;22.66
69552;BMP280;63774;45.292;11.784;2022-10-16T03:00:16;102380.14;;;22.67
69552;BMP280;63774;45.292;11.784;2022-10-16T03:02:42;102382.86;;;22.65
69552;BMP280;63774;45.292;11.784;2022-10-16T03:05:09;102383.42;;;22.67
69552;BMP280;63774;45.292;11.784;2022-10-16T03:07:35;102385.02;;;22.67
69552;BMP280;63774;45.292;11.784;2022-10-16T03:10:00;102383.61;;;22.68
69552;BMP280;63774;45.292;11.784;2022-10-16T03:12:27;102385.58;;;22.67
69552;BMP280;63774;45.292;11.784;2022-10-16T03:14:53;102385.45;;;22.65
69552;BMP280;63774;45.292;11.784;2022-10-16T03:17:18;102388.67;;;22.65
69552;BMP280;63774;45.292;11.784;2022-10-16T03:19:44;102388.01;;;22.66
69552;BMP280;63774;45.292;11.784;2022-10-16T03:22:09;102386.51;;;22.66
69552;BMP280;63774;45.292;11.784;2022-10-16T03:24:35;102383.39;;;22.65
69552;BMP280;63774;45.292;11.784;2022-10-16T03:27:00;102384.23;;;22.66
69552;BMP280;63774;45.292;11.784;2022-10-16T03:29:26;102380.55;;;22.65
69552;BMP280;63774;45.292;11.784;2022-10-16T03:31:52;102376.24;;;22.65
69552;BMP280;63774;45.292;11.784;2022-10-16T03:34:18;102374.48;;;22.65
69552;BMP280;63774;45.292;11.784;2022-10-16T03:36:43;102370.36;;;22.64
69552;BMP280;63774;45.292;11.784;2022-10-16T03:39:09;102371.93;;;22.64
69552;BMP280;63774;45.292;11.784;2022-10-16T03:41:34;102374.70;;;22.64
69552;BMP280;63774;45.292;11.784;2022-10-16T03:44:00;102377.10;;;22.63
69552;BMP280;63774;45.292;11.784;2022-10-16T03:46:25;102379.40;;;22.62
69552;BMP280;63774;45.292;11.784;2022-10-16T03:48:51;102377.14;;;22.63
69552;BMP280;63774;45.292;11.784;2022-10-16T03:51:16;102377.94;;;22.63
69552;BMP280;63774;45.292;11.784;2022-10-16T03:53:42;102380.52;;;22.62
69552;BMP280;63774;45.292;11.784;2022-10-16T03:56:07;102377.88;;;22.60
69552;BMP280;63774;45.292;11.784;2022-10-16T03:58:33;102380.46;;;22.59
69552;BMP280;63774;45.292;11.784;2022-10-16T04:00:58;102381.33;;;22.60
69552;BMP280;63774;45.292;11.784;2022-10-16T04:03:24;102387.58;;;22.59
69552;BMP280;63774;45.292;11.784;2022-10-16T04:05:49;102388.19;;;22.58
69552;BMP280;63774;45.292;11.784;2022-10-16T04:08:15;102387.72;;;22.57
69552;BMP280;63774;45.292;11.784;2022-10-16T04:10:42;102390.14;;;22.57
69552;BMP280;63774;45.292;11.784;2022-10-16T04:13:08;102390.85;;;22.56
69552;BMP280;63774;45.292;11.784;2022-10-16T04:15:34;102391.93;;;22.56
69552;BMP280;63774;45.292;11.784;2022-10-16T04:18:00;102392.82;;;22.57
69552;BMP280;63774;45.292;11.784;2022-10-16T04:20:26;102392.39;;;22.56
69552;BMP280;63774;45.292;11.784;2022-10-16T04:22:51;102391.07;;;22.55
69552;BMP280;63774;45.292;11.784;2022-10-16T04:25:17;102395.26;;;22.55
69552;BMP280;63774;45.292;11.784;2022-10-16T04:27:42;102399.42;;;22.56
69552;BMP280;63774;45.292;11.784;2022-10-16T04:30:08;102398.80;;;22.54
69552;BMP280;63774;45.292;11.784;2022-10-16T04:32:33;102401.33;;;22.56
69552;BMP280;63774;45.292;11.784;2022-10-16T04:34:59;102400.05;;;22.54
69552;BMP280;63774;45.292;11.784;2022-10-16T04:37:26;102407.38;;;22.54
69552;BMP280;63774;45.292;11.784;2022-10-16T04:39:52;102413.79;;;22.55
69552;BMP280;63774;45.292;11.784;2022-10-16T04:42:18;102415.67;;;22.54
69552;BMP280;63774;45.292;11.784;2022-10-16T04:44:43;102412.69;;;22.52
69552;BMP280;63774;45.292;11.784;2022-10-16T04:47:09;102418.37;;;22.54
69552;BMP280;63774;45.292;11.784;2022-10-16T04:49:34;102422.79;;;22.55
69552;BMP280;63774;45.292;11.784;2022-10-16T04:52:00;102419.21;;;22.53
69552;BMP280;63774;45.292;11.784;2022-10-16T04:54:26;102418.95;;;22.53
69552;BMP280;63774;45.292;11.784;2022-10-16T04:56:51;102419.52;;;22.53
69552;BMP280;63774;45.292;11.784;2022-10-16T04:59:18;102424.15;;;22.53
69552;BMP280;63774;45.292;11.784;2022-10-16T05:01:44;102419.81;;;22.52
69552;BMP280;63774;45.292;11.784;2022-10-16T05:04:10;102418.25;;;22.53
69552;BMP280;63774;45.292;11.784;2022-10-16T05:06:36;102418.71;;;22.53
69552;BMP280;63774;45.292;11.784;2022-10-16T05:09:04;102417.66;;;22.52
69552;BMP280;63774;45.292;11.784;2022-10-16T05:11:31;102420.13;;;22.53
69552;BMP280;63774;45.292;11.784;2022-10-16T05:13:56;102418.41;;;22.52
69552;BMP280;63774;45.292;11.784;2022-10-16T05:16:21;102422.02;;;22.51
69552;BMP280;63774;45.292;11.784;2022-10-16T05:18:47;102425.05;;;22.50
69552;BMP280;63774;45.292;11.784;2022-10-16T05:21:12;102427.39;;;22.50
69552;BMP280;63774;45.292;11.784;2022-10-16T05:23:38;102432.73;;;22.50
69552;BMP280;63774;45.292;11.784;2022-10-16T05:26:03;102432.60;;;22.50
69552;BMP280;63774;45.292;11.784;2022-10-16T05:28:29;102435.79;;;22.49
69552;BMP280;63774;45.292;11.784;2022-10-16T05:30:56;102438.20;;;22.48
69552;BMP280;63774;45.292;11.784;2022-10-16T05:33:24;102441.58;;;22.47
69552;BMP280;63774;45.292;11.784;2022-10-16T05:35:50;102444.92;;;22.48
69552;BMP280;63774;45.292;11.784;2022-10-16T05:38:16;102448.13;;;22.47
69552;BMP280;63774;45.292;11.784;2022-10-16T05:40:42;102445.98;;;22.44
69552;BMP280;63774;45.292;11.784;2022-10-16T05:43:08;102450.73;;;22.44
69552;BMP280;63774;45.292;11.784;2022-10-16T05:45:34;102451.12;;;22.44
69552;BMP280;63774;45.292;11.784;2022-10-16T05:48:00;102461.59;;;22.43
69552;BMP280;63774;45.292;11.784;2022-10-16T05:50:26;102463.83;;;22.44
69552;BMP280;63774;45.292;11.784;2022-10-16T05:52:52;102465.54;;;22.44
69552;BMP280;63774;45.292;11.784;2022-10-16T05:55:17;102465.71;;;22.43
69552;BMP280;63774;45.292;11.784;2022-10-16T05:57:43;102466.95;;;22.44
69552;BMP280;63774;45.292;11.784;2022-10-16T06:00:09;102469.58;;;22.44
69552;BMP280;63774;45.292;11.784;2022-10-16T06:02:35;102472.23;;;22.44
69552;BMP280;63774;45.292;11.784;2022-10-16T06:05:00;102475.37;;;22.45
69552;BMP280;63774;45.292;11.784;2022-10-16T06:07:26;102477.92;;;22.46
69552;BMP280;63774;45.292;11.784;2022-10-16T06:09:52;102480.91;;;22.46
69552;BMP280;63774;45.292;11.784;2022-10-16T06:12:18;102481.98;;;22.42
69552;BMP280;63774;45.292;11.784;2022-10-16T06:14:45;102486.55;;;22.44
69552;BMP280;63774;45.292;11.784;2022-10-16T06:17:13;102490.63;;;22.44
69552;BMP280;63774;45.292;11.784;2022-10-16T06:19:39;102493.25;;;22.43
69552;BMP280;63774;45.292;11.784;2022-10-16T06:22:05;102496.08;;;22.45
69552;BMP280;63774;45.292;11.784;2022-10-16T06:24:30;102502.63;;;22.45
69552;BMP280;63774;45.292;11.784;2022-10-16T06:26:55;102506.55;;;22.44
69552;BMP280;63774;45.292;11.784;2022-10-16T06:29:21;102511.02;;;22.44
69552;BMP280;63774;45.292;11.784;2022-10-16T06:31:46;102514.74;;;22.45
69552;BMP280;63774;45.292;11.784;2022-10-16T06:34:12;102518.27;;;22.44
69552;BMP280;63774;45.292;11.784;2022-10-16T06:36:39;102525.04;;;22.45
69552;BMP280;63774;45.292;11.784;2022-10-16T06:39:05;102523.89;;;22.46
69552;BMP280;63774;45.292;11.784;2022-10-16T06:41:32;102526.13;;;22.46
69552;BMP280;63774;45.292;11.784;2022-10-16T06:43:58;102530.36;;;22.46
69552;BMP280;63774;45.292;11.784;2022-10-16T06:46:24;102533.92;;;22.45
69552;BMP280;63774;45.292;11.784;2022-10-16T06:48:50;102540.56;;;22.44
69552;BMP280;63774;45.292;11.784;2022-10-16T06:51:21;102542.92;;;22.45
69552;BMP280;63774;45.292;11.784;2022-10-16T06:53:52;102550.39;;;22.46
69552;BMP280;63774;45.292;11.784;2022-10-16T06:56:23;102553.52;;;22.46
69552;BMP280;63774;45.292;11.784;2022-10-16T06:58:50;102555.21;;;22.47
69552;BMP280;63774;45.292;11.784;2022-10-16T07:01:17;102560.29;;;22.47
69552;BMP280;63774;45.292;11.784;2022-10-16T07:03:45;102562.77;;;22.48
69552;BMP280;63774;45.292;11.784;2022-10-16T07:06:14;102563.89;;;22.47
69552;BMP280;63774;45.292;11.784;2022-10-16T07:08:42;102562.76;;;22.47
69552;BMP280;63774;45.292;11.784;2022-10-16T07:11:17;102565.72;;;22.48
69552;BMP280;63774;45.292;11.784;2022-10-16T07:13:44;102569.52;;;22.45
69552;BMP280;63774;45.292;11.784;2022-10-16T07:16:18;102575.65;;;22.45
69552;BMP280;63774;45.292;11.784;2022-10-16T07:18:44;102579.74;;;22.46
69552;BMP280;63774;45.292;11.784;2022-10-16T07:21:14;102578.89;;;22.46
69552;BMP280;63774;45.292;11.784;2022-10-16T07:23:41;102586.84;;;22.48
69552;BMP280;63774;45.292;11.784;2022-10-16T07:26:07;102592.60;;;22.47
69552;BMP280;63774;45.292;11.784;2022-10-16T07:28:33;102597.02;;;22.48
69552;BMP280;63774;45.292;11.784;2022-10-16T07:31:05;102600.64;;;22.49
69552;BMP280;63774;45.292;11.784;2022-10-16T07:33:34;102599.66;;;22.49
69552;BMP280;63774;45.292;11.784;2022-10-16T07:35:59;102600.05;;;22.48
69552;BMP280;63774;45.292;11.784;2022-10-16T07:38:25;102602.73;;;22.50
69552;BMP280;63774;45.292;11.784;2022-10-16T07:41:07;102608.89;;;22.51
69552;BMP280;63774;45.292;11.784;2022-10-16T07:43:34;102608.62;;;22.50
69552;BMP280;63774;45.292;11.784;2022-10-16T07:46:00;102613.59;;;22.49
69552;BMP280;63774;45.292;11.784;2022-10-16T07:48:30;102615.33;;;22.48
69552;BMP280;63774;45.292;11.784;2022-10-16T07:51:00;102619.41;;;22.49
69552;BMP280;63774;45.292;11.784;2022-10-16T07:53:27;102619.60;;;22.47
69552;BMP280;63774;45.292;11.784;2022-10-16T07:56:06;102625.08;;;22.49
69552;BMP280;63774;45.292;11.784;2022-10-16T07:58:33;102623.25;;;22.50
69552;BMP280;63774;45.292;11.784;2022-10-16T08:01:06;102628.40;;;22.51
69552;BMP280;63774;45.292;11.784;2022-10-16T08:03:32;102628.20;;;22.50
69552;BMP280;63774;45.292;11.784;2022-10-16T08:05:59;102625.48;;;22.49
69552;BMP280;63774;45.292;11.784;2022-10-16T08:08:25;102631.64;;;22.51
69552;BMP280;63774;45.292;11.784;2022-10-16T08:10:51;102633.29;;;22.50
69552;BMP280;63774;45.292;11.784;2022-10-16T08:13:17;102633.62;;;22.51
69552;BMP280;63774;45.292;11.784;2022-10-16T08:15:43;102638.08;;;22.53
69552;BMP280;63774;45.292;11.784;2022-10-16T08:18:10;102640.65;;;22.54
69552;BMP280;63774;45.292;11.784;2022-10-16T08:20:35;102637.20;;;22.55
69552;BMP280;63774;45.292;11.784;2022-10-16T08:23:01;102635.40;;;22.56
69552;BMP280;63774;45.292;11.784;2022-10-16T08:25:28;102636.82;;;22.59
69552;BMP280;63774;45.292;11.784;2022-10-16T08:27:55;102637.23;;;22.58
69552;BMP280;63774;45.292;11.784;2022-10-16T08:30:22;102637.38;;;22.58
69552;BMP280;63774;45.292;11.784;2022-10-16T08:32:48;102640.71;;;22.58
69552;BMP280;63774;45.292;11.784;2022-10-16T08:35:14;102640.83;;;22.59
69552;BMP280;63774;45.292;11.784;2022-10-16T08:37:41;102643.79;;;22.60
69552;BMP280;63774;45.292;11.784;2022-10-16T08:40:16;102645.99;;;22.60
69552;BMP280;63774;45.292;11.784;2022-10-16T08:48:17;102659.46;;;22.64
69552;BMP280;63774;45.292;11.784;2022-10-16T08:50:44;102660.31;;;22.62
69552;BMP280;63774;45.292;11.784;2022-10-16T08:53:19;102661.45;;;22.64
69552;BMP280;63774;45.292;11.784;2022-10-16T08:55:53;102662.41;;;22.65
69552;BMP280;63774;45.292;11.784;2022-10-16T08:58:25;102661.45;;;22.64
69552;BMP280;63774;45.292;11.784;2022-10-16T09:00:58;102660.09;;;22.65
69552;BMP280;63774;45.292;11.784;2022-10-16T09:15:01;102667.02;;;22.67
69552;BMP280;63774;45.292;11.784;2022-10-16T09:23:08;102668.14;;;22.71
69552;BMP280;63774;45.292;11.784;2022-10-16T09:25:35;102663.38;;;22.72
69552;BMP280;63774;45.292;11.784;2022-10-16T09:28:03;102661.39;;;22.73
69552;BMP280;63774;45.292;11.784;2022-10-16T09:30:29;102657.50;;;22.73
69552;BMP280;63774;45.292;11.784;2022-10-16T09:32:57;102658.20;;;22.75
69552;BMP280;63774;45.292;11.784;2022-10-16T09:35:33;102656.23;;;22.75
69552;BMP280;63774;45.292;11.784;2022-10-16T09:38:00;102652.83;;;22.77
69552;BMP280;63774;45.292;11.784;2022-10-16T09:40:32;102649.84;;;22.77
69552;BMP280;63774;45.292;11.784;2022-10-16T09:43:25;102650.61;;;22.78
69552;BMP280;63774;45.292;11.784;2022-10-16T09:48:21;102656.61;;;22.81
69552;BMP280;63774;45.292;11.784;2022-10-16T09:51:02;102657.25;;;22.81
69552;BMP280;63774;45.292;11.784;2022-10-16T09:53:38;102653.40;;;22.82
69552;BMP280;63774;45.292;11.784;2022-10-16T09:56:11;102653.90;;;22.83
69552;BMP280;63774;45.292;11.784;2022-10-16T09:58:42;102650.27;;;22.83
69552;BMP280;63774;45.292;11.784;2022-10-16T10:01:14;102654.23;;;22.87
69552;BMP280;63774;45.292;11.784;2022-10-16T10:03:43;102653.55;;;22.88
69552;BMP280;63774;45.292;11.784;2022-10-16T10:06:24;102648.00;;;22.88
69552;BMP280;63774;45.292;11.784;2022-10-16T10:12:01;102641.20;;;22.90
69552;BMP280;63774;45.292;11.784;2022-10-16T10:17:19;102634.88;;;22.89
69552;BMP280;63774;45.292;11.784;2022-10-16T10:22:22;102635.48;;;22.91
69552;BMP280;63774;45.292;11.784;2022-10-16T10:38:45;102627.05;;;22.92
69552;BMP280;63774;45.292;11.784;2022-10-16T10:49:56;102624.58;;;22.95
69552;BMP280;63774;45.292;11.784;2022-10-16T11:05:46;102613.23;;;22.96
69552;BMP280;63774;45.292;11.784;2022-10-16T11:08:19;102612.89;;;22.96
69552;BMP280;63774;45.292;11.784;2022-10-16T11:13:31;102616.98;;;22.97
69552;BMP280;63774;45.292;11.784;2022-10-16T11:16:03;102615.80;;;22.97
69552;BMP280;63774;45.292;11.784;2022-10-16T11:18:51;102613.95;;;22.98
69552;BMP280;63774;45.292;11.784;2022-10-16T11:21:19;102612.35;;;22.99
69552;BMP280;63774;45.292;11.784;2022-10-16T11:24:20;102615.13;;;22.99
69552;BMP280;63774;45.292;11.784;2022-10-16T11:26:47;102611.43;;;22.99
69552;BMP280;63774;45.292;11.784;2022-10-16T11:29:35;102612.14;;;22.98
69552;BMP280;63774;45.292;11.784;2022-10-16T11:32:21;102613.05;;;23.00
69552;BMP280;63774;45.292;11.784;2022-10-16T11:35:00;102612.33;;;23.00
69552;BMP280;63774;45.292;11.784;2022-10-16T11:37:32;102611.10;;;23.01
69552;BMP280;63774;45.292;11.784;2022-10-16T11:43:24;102612.45;;;23.03
69552;BMP280;63774;45.292;11.784;2022-10-16T11:45:57;102612.14;;;23.02
69552;BMP280;63774;45.292;11.784;2022-10-16T11:48:35;102613.20;;;23.02
69552;BMP280;63774;45.292;11.784;2022-10-16T11:51:13;102612.05;;;23.03
69552;BMP280;63774;45.292;11.784;2022-10-16T11:56:17;102616.09;;;23.04
69552;BMP280;63774;45.292;11.784;2022-10-16T11:59:04;102615.61;;;23.03
69552;BMP280;63774;45.292;11.784;2022-10-16T12:09:29;102613.96;;;23.04
69552;BMP280;63774;45.292;11.784;2022-10-16T12:11:56;102612.77;;;23.02
69552;BMP280;63774;45.292;11.784;2022-10-16T12:14:41;102614.51;;;23.02
69552;BMP280;63774;45.292;11.784;2022-10-16T12:19:57;102611.02;;;23.05
69552;BMP280;63774;45.292;11.784;2022-10-16T12:22:23;102611.50;;;23.06
69552;BMP280;63774;45.292;11.784;2022-10-16T12:24:51;102613.15;;;23.05
69552;BMP280;63774;45.292;11.784;2022-10-16T12:27:43;102613.15;;;23.05
69552;BMP280;63774;45.292;11.784;2022-10-16T12:30:22;102614.02;;;23.06
69552;BMP280;63774;45.292;11.784;2022-10-16T12:33:01;102612.50;;;23.07
69552;BMP280;63774;45.292;11.784;2022-10-16T12:35:33;102615.59;;;23.06
69552;BMP280;63774;45.292;11.784;2022-10-16T12:38:17;102615.21;;;23.06
69552;BMP280;63774;45.292;11.784;2022-10-16T12:40:44;102614.10;;;23.05
69552;BMP280;63774;45.292;11.784;2022-10-16T12:43:24;102612.90;;;23.06
69552;BMP280;63774;45.292;11.784;2022-10-16T12:46:04;102614.23;;;23.07
69552;BMP280;63774;45.292;11.784;2022-10-16T12:48:30;102614.01;;;23.06
69552;BMP280;63774;45.292;11.784;2022-10-16T12:50:56;102616.64;;;23.08
69552;BMP280;63774;45.292;11.784;2022-10-16T12:53:24;102618.39;;;23.09
69552;BMP280;63774;45.292;11.784;2022-10-16T12:56:23;102617.75;;;23.08
69552;BMP280;63774;45.292;11.784;2022-10-16T12:59:00;102621.08;;;23.09
69552;BMP280;63774;45.292;11.784;2022-10-16T13:01:56;102621.10;;;23.09
69552;BMP280;63774;45.292;11.784;2022-10-16T13:04:32;102619.64;;;23.07
69552;BMP280;63774;45.292;11.784;2022-10-16T13:15:36;102617.84;;;23.09
69552;BMP280;63774;45.292;11.784;2022-10-16T13:18:10;102619.96;;;23.09
69552;BMP280;63774;45.292;11.784;2022-10-16T13:20:52;102619.60;;;23.09
69552;BMP280;63774;45.292;11.784;2022-10-16T13:23:59;102623.19;;;23.09
69552;BMP280;63774;45.292;11.784;2022-10-16T13:29:32;102625.50;;;23.09
69552;BMP280;63774;45.292;11.784;2022-10-16T13:32:00;102628.27;;;23.10
69552;BMP280;63774;45.292;11.784;2022-10-16T13:34:28;102628.51;;;23.09
69552;BMP280;63774;45.292;11.784;2022-10-16T13:36:54;102630.67;;;23.11
69552;BMP280;63774;45.292;11.784;2022-10-16T13:39:25;102633.04;;;23.11
69552;BMP280;63774;45.292;11.784;2022-10-16T13:42:03;102637.21;;;23.11
69552;BMP280;63774;45.292;11.784;2022-10-16T13:44:44;102636.05;;;23.12
69552;BMP280;63774;45.292;11.784;2022-10-16T13:47:19;102633.92;;;23.12
69552;BMP280;63774;45.292;11.784;2022-10-16T13:49:47;102632.98;;;23.12
69552;BMP280;63774;45.292;11.784;2022-10-16T13:52:20;102632.48;;;23.11
69552;BMP280;63774;45.292;11.784;2022-10-16T13:54:47;102633.96;;;23.12
69552;BMP280;63774;45.292;11.784;2022-10-16T13:57:16;102636.26;;;23.13
69552;BMP280;63774;45.292;11.784;2022-10-16T13:59:43;102634.81;;;23.12
69552;BMP280;63774;45.292;11.784;2022-10-16T14:04:46;102643.08;;;23.15
69552;BMP280;63774;45.292;11.784;2022-10-16T14:07:24;102642.72;;;23.16
69552;BMP280;63774;45.292;11.784;2022-10-16T14:09:51;102641.11;;;23.14
69552;BMP280;63774;45.292;11.784;2022-10-16T14:12:19;102645.12;;;23.15
69552;BMP280;63774;45.292;11.784;2022-10-16T14:14:55;102642.95;;;23.15
69552;BMP280;63774;45.292;11.784;2022-10-16T14:17:27;102643.87;;;23.15
69552;BMP280;63774;45.292;11.784;2022-10-16T14:19:56;102640.84;;;23.16
69552;BMP280;63774;45.292;11.784;2022-10-16T14:22:58;102642.09;;;23.15
69552;BMP280;63774;45.292;11.784;2022-10-16T14:25:28;102640.55;;;23.17
69552;BMP280;63774;45.292;11.784;2022-10-16T14:28:02;102642.65;;;23.17
69552;BMP280;63774;45.292;11.784;2022-10-16T14:30:30;102643.23;;;23.18
69552;BMP280;63774;45.292;11.784;2022-10-16T14:33:18;102641.80;;;23.16
69552;BMP280;63774;45.292;11.784;2022-10-16T14:35:45;102646.23;;;23.17
69552;BMP280;63774;45.292;11.784;2022-10-16T14:38:18;102644.76;;;23.18
69552;BMP280;63774;45.292;11.784;2022-10-16T14:40:49;102647.96;;;23.19
69552;BMP280;63774;45.292;11.784;2022-10-16T14:43:23;102648.58;;;23.19
69552;BMP280;63774;45.292;11.784;2022-10-16T14:45:52;102649.88;;;23.19
69552;BMP280;63774;45.292;11.784;2022-10-16T14:48:20;102650.21;;;23.19
69552;BMP280;63774;45.292;11.784;2022-10-16T14:50:46;102651.25;;;23.19
69552;BMP280;63774;45.292;11.784;2022-10-16T14:53:12;102648.30;;;23.17
69552;BMP280;63774;45.292;11.784;2022-10-16T14:55:42;102652.73;;;23.19
69552;BMP280;63774;45.292;11.784;2022-10-16T14:58:22;102651.95;;;23.18
69552;BMP280;63774;45.292;11.784;2022-10-16T15:00:50;102652.84;;;23.19
69552;BMP280;63774;45.292;11.784;2022-10-16T15:03:16;102650.04;;;23.20
69552;BMP280;63774;45.292;11.784;2022-10-16T15:05:41;102649.54;;;23.20
69552;BMP280;63774;45.292;11.784;2022-10-16T15:08:07;102651.50;;;23.21
69552;BMP280;63774;45.292;11.784;2022-10-16T15:10:37;102651.92;;;23.21
69552;BMP280;63774;45.292;11.784;2022-10-16T15:13:04;102653.88;;;23.22
69552;BMP280;63774;45.292;11.784;2022-10-16T15:15:35;102659.25;;;23.22
69552;BMP280;63774;45.292;11.784;2022-10-16T15:18:02;102657.86;;;23.21
69552;BMP280;63774;45.292;11.784;2022-10-16T15:20:31;102659.59;;;23.22
69552;BMP280;63774;45.292;11.784;2022-10-16T15:23:00;102661.81;;;23.23
69552;BMP280;63774;45.292;11.784;2022-10-16T15:25:31;102662.60;;;23.24
69552;BMP280;63774;45.292;11.784;2022-10-16T15:28:01;102663.04;;;23.25
69552;BMP280;63774;45.292;11.784;2022-10-16T15:30:27;102663.30;;;23.23
69552;BMP280;63774;45.292;11.784;2022-10-16T15:32:53;102665.24;;;23.25
69552;BMP280;63774;45.292;11.784;2022-10-16T15:35:19;102667.35;;;23.25
69552;BMP280;63774;45.292;11.784;2022-10-16T15:37:46;102668.44;;;23.25
69552;BMP280;63774;45.292;11.784;2022-10-16T15:40:13;102669.05;;;23.26
69552;BMP280;63774;45.292;11.784;2022-10-16T15:42:38;102670.21;;;23.26
69552;BMP280;63774;45.292;11.784;2022-10-16T15:45:05;102672.48;;;23.26